Terminal Aerodrome Forecast
Issued by NWS

Home | Current Version | Previous Version | Text Only | Print | Product List | Glossary On
Versions: 1 2 3 4 5 6 7 8 9 10 11 12 13
000
FTUS44 KEPZ 260500
TAFLRU
TAF
KLRU 260535Z 2606/2706 24012KT P6SM BKN250
     FM261500 25017G27KT P6SM SCT100 BKN250
     FM261800 26030G45KT P6SM VCTS SCT060CB BKN100
      TEMPO 2619/2623 3SM TSRA BKN040CB
     FM270100 29014KT P6SM SCT100=

USA.gov is the U.S. government's official web portal to all federal, state and local government web resources and services.